sensor_id;sensor_type;location;lat;lon;timestamp;pressure;altitude;pressure_sealevel;temperature;humidity
74310;BME280;62722;51.142;17.052;2022-12-24T00:01:03;99169.81;;;6.53;100.00
74310;BME280;62722;51.142;17.052;2022-12-24T00:03:31;99171.59;;;6.52;100.00
74310;BME280;62722;51.142;17.052;2022-12-24T00:06:03;99163.75;;;6.52;100.00
74310;BME280;62722;51.142;17.052;2022-12-24T00:08:30;99162.81;;;6.53;100.00
74310;BME280;62722;51.142;17.052;2022-12-24T00:10:58;99153.25;;;6.52;100.00
74310;BME280;62722;51.142;17.052;2022-12-24T00:13:25;99138.38;;;6.53;100.00
74310;BME280;62722;51.142;17.052;2022-12-24T00:15:52;99135.00;;;6.51;100.00
74310;BME280;62722;51.142;17.052;2022-12-24T00:18:19;99153.25;;;6.52;100.00
74310;BME280;62722;51.142;17.052;2022-12-24T00:20:47;99143.69;;;6.51;100.00
74310;BME280;62722;51.142;17.052;2022-12-24T00:23:16;99155.97;;;6.51;100.00
74310;BME280;62722;51.142;17.052;2022-12-24T00:25:44;99157.78;;;6.50;100.00
74310;BME280;62722;51.142;17.052;2022-12-24T00:28:12;99164.69;;;6.51;100.00
74310;BME280;62722;51.142;17.052;2022-12-24T00:30:41;99166.56;;;6.49;100.00
74310;BME280;62722;51.142;17.052;2022-12-24T00:33:09;99160.47;;;6.49;100.00
74310;BME280;62722;51.142;17.052;2022-12-24T00:35:38;99158.78;;;6.48;100.00
74310;BME280;62722;51.142;17.052;2022-12-24T00:38:06;99164.78;;;6.50;100.00
74310;BME280;62722;51.142;17.052;2022-12-24T00:40:34;99170.88;;;6.50;100.00
74310;BME280;62722;51.142;17.052;2022-12-24T00:43:02;99167.50;;;6.48;100.00
74310;BME280;62722;51.142;17.052;2022-12-24T00:45:29;99168.44;;;6.47;100.00
74310;BME280;62722;51.142;17.052;2022-12-24T00:47:56;99162.25;;;6.48;100.00
74310;BME280;62722;51.142;17.052;2022-12-24T00:50:24;99155.31;;;6.47;100.00
74310;BME280;62722;51.142;17.052;2022-12-24T00:52:51;99169.41;;;6.46;100.00
74310;BME280;62722;51.142;17.052;2022-12-24T00:55:18;99175.50;;;6.47;100.00
74310;BME280;62722;51.142;17.052;2022-12-24T00:57:47;99176.28;;;6.47;100.00
74310;BME280;62722;51.142;17.052;2022-12-24T01:00:14;99174.44;;;6.49;100.00
74310;BME280;62722;51.142;17.052;2022-12-24T01:02:42;99178.91;;;6.47;100.00
74310;BME280;62722;51.142;17.052;2022-12-24T01:05:10;99186.78;;;6.47;100.00
74310;BME280;62722;51.142;17.052;2022-12-24T01:07:39;99175.66;;;6.44;100.00
74310;BME280;62722;51.142;17.052;2022-12-24T01:10:07;99175.78;;;6.42;100.00
74310;BME280;62722;51.142;17.052;2022-12-24T01:12:35;99173.25;;;6.41;100.00
74310;BME280;62722;51.142;17.052;2022-12-24T01:15:04;99165.38;;;6.41;100.00
74310;BME280;62722;51.142;17.052;2022-12-24T01:17:32;99168.13;;;6.39;100.00
74310;BME280;62722;51.142;17.052;2022-12-24T01:20:00;99159.50;;;6.37;100.00
74310;BME280;62722;51.142;17.052;2022-12-24T01:22:28;99171.47;;;6.41;100.00
74310;BME280;62722;51.142;17.052;2022-12-24T01:24:55;99166.31;;;6.40;100.00
74310;BME280;62722;51.142;17.052;2022-12-24T01:27:22;99167.28;;;6.39;100.00
74310;BME280;62722;51.142;17.052;2022-12-24T01:29:49;99164.53;;;6.40;100.00
74310;BME280;62722;51.142;17.052;2022-12-24T01:32:18;99149.03;;;6.37;100.00
74310;BME280;62722;51.142;17.052;2022-12-24T01:34:45;99162.03;;;6.39;100.00
74310;BME280;62722;51.142;17.052;2022-12-24T01:37:12;99161.91;;;6.40;100.00
74310;BME280;62722;51.142;17.052;2022-12-24T01:39:39;99159.41;;;6.39;100.00
74310;BME280;62722;51.142;17.052;2022-12-24T01:42:22;99157.66;;;6.39;100.00
74310;BME280;62722;51.142;17.052;2022-12-24T01:45:34;99159.31;;;6.40;100.00
74310;BME280;62722;51.142;17.052;2022-12-24T01:48:13;99148.81;;;6.40;100.00
74310;BME280;62722;51.142;17.052;2022-12-24T01:50:42;99152.41;;;6.39;100.00
74310;BME280;62722;51.142;17.052;2022-12-24T01:53:10;99160.16;;;6.41;100.00
74310;BME280;62722;51.142;17.052;2022-12-24T01:55:40;99165.31;;;6.42;100.00
74310;BME280;62722;51.142;17.052;2022-12-24T01:58:08;99161.00;;;6.41;100.00
74310;BME280;62722;51.142;17.052;2022-12-24T02:00:37;99165.31;;;6.42;100.00
74310;BME280;62722;51.142;17.052;2022-12-24T02:03:04;99158.38;;;6.41;100.00
74310;BME280;62722;51.142;17.052;2022-12-24T02:05:37;99155.75;;;6.41;100.00
74310;BME280;62722;51.142;17.052;2022-12-24T02:08:08;99140.22;;;6.38;100.00
74310;BME280;62722;51.142;17.052;2022-12-24T02:10:35;99152.56;;;6.36;100.00
74310;BME280;62722;51.142;17.052;2022-12-24T02:13:04;99147.53;;;6.33;100.00
74310;BME280;62722;51.142;17.052;2022-12-24T02:15:41;99148.31;;;6.35;100.00
74310;BME280;62722;51.142;17.052;2022-12-24T02:18:18;99162.13;;;6.37;100.00
74310;BME280;62722;51.142;17.052;2022-12-24T02:21:29;99146.63;;;6.34;100.00
74310;BME280;62722;51.142;17.052;2022-12-24T02:24:27;99142.09;;;6.36;100.00
74310;BME280;62722;51.142;17.052;2022-12-24T02:27:12;99140.44;;;6.35;100.00
74310;BME280;62722;51.142;17.052;2022-12-24T02:29:59;99144.63;;;6.38;100.00
74310;BME280;62722;51.142;17.052;2022-12-24T02:32:33;99150.59;;;6.40;100.00
74310;BME280;62722;51.142;17.052;2022-12-24T02:35:07;99147.88;;;6.41;100.00
74310;BME280;62722;51.142;17.052;2022-12-24T02:37:38;99138.34;;;6.40;100.00
74310;BME280;62722;51.142;17.052;2022-12-24T02:40:10;99151.34;;;6.42;100.00
74310;BME280;62722;51.142;17.052;2022-12-24T02:42:42;99150.28;;;6.44;100.00
74310;BME280;62722;51.142;17.052;2022-12-24T02:45:14;99153.97;;;6.42;100.00
74310;BME280;62722;51.142;17.052;2022-12-24T02:47:44;99157.44;;;6.42;100.00
74310;BME280;62722;51.142;17.052;2022-12-24T02:50:13;99145.25;;;6.41;100.00
74310;BME280;62722;51.142;17.052;2022-12-24T02:52:42;99139.19;;;6.41;100.00
74310;BME280;62722;51.142;17.052;2022-12-24T02:55:12;99150.41;;;6.43;100.00
74310;BME280;62722;51.142;17.052;2022-12-24T02:58:17;99146.00;;;6.43;100.00
74310;BME280;62722;51.142;17.052;2022-12-24T03:00:57;99152.19;;;6.42;100.00
74310;BME280;62722;51.142;17.052;2022-12-24T03:03:48;99147.88;;;6.41;100.00
74310;BME280;62722;51.142;17.052;2022-12-24T03:06:23;99147.81;;;6.43;100.00
74310;BME280;62722;51.142;17.052;2022-12-24T03:08:58;99151.22;;;6.43;100.00
74310;BME280;62722;51.142;17.052;2022-12-24T03:11:26;99150.28;;;6.44;100.00
74310;BME280;62722;51.142;17.052;2022-12-24T03:13:55;99160.78;;;6.44;100.00
74310;BME280;62722;51.142;17.052;2022-12-24T03:16:27;99149.38;;;6.45;100.00
74310;BME280;62722;51.142;17.052;2022-12-24T03:18:55;99145.91;;;6.45;100.00
74310;BME280;62722;51.142;17.052;2022-12-24T03:21:27;99157.03;;;6.48;100.00
74310;BME280;62722;51.142;17.052;2022-12-24T03:23:55;99161.22;;;6.51;100.00
74310;BME280;62722;51.142;17.052;2022-12-24T03:26:23;99162.25;;;6.48;100.00
74310;BME280;62722;51.142;17.052;2022-12-24T03:28:51;99151.78;;;6.48;100.00
74310;BME280;62722;51.142;17.052;2022-12-24T03:31:19;99154.41;;;6.48;100.00
74310;BME280;62722;51.142;17.052;2022-12-24T03:33:48;99155.31;;;6.47;100.00
74310;BME280;62722;51.142;17.052;2022-12-24T03:36:15;99160.56;;;6.47;100.00
74310;BME280;62722;51.142;17.052;2022-12-24T03:38:43;99163.19;;;6.47;100.00
74310;BME280;62722;51.142;17.052;2022-12-24T03:41:10;99160.56;;;6.47;100.00
74310;BME280;62722;51.142;17.052;2022-12-24T03:43:37;99163.09;;;6.49;100.00
74310;BME280;62722;51.142;17.052;2022-12-24T03:46:05;99157.03;;;6.48;100.00
74310;BME280;62722;51.142;17.052;2022-12-24T03:48:32;99170.25;;;6.47;100.00
74310;BME280;62722;51.142;17.052;2022-12-24T03:51:02;99162.47;;;6.45;100.00
74310;BME280;62722;51.142;17.052;2022-12-24T03:53:30;99175.56;;;6.45;100.00
74310;BME280;62722;51.142;17.052;2022-12-24T03:55:58;99168.56;;;6.46;100.00
74310;BME280;62722;51.142;17.052;2022-12-24T03:58:25;99179.03;;;6.46;100.00
74310;BME280;62722;51.142;17.052;2022-12-24T04:00:52;99178.19;;;6.45;100.00
74310;BME280;62722;51.142;17.052;2022-12-24T04:03:19;99173.03;;;6.44;100.00
74310;BME280;62722;51.142;17.052;2022-12-24T04:05:47;99175.56;;;6.45;100.00
74310;BME280;62722;51.142;17.052;2022-12-24T04:08:15;99175.78;;;6.42;100.00
74310;BME280;62722;51.142;17.052;2022-12-24T04:10:43;99181.66;;;6.58;100.00
74310;BME280;62722;51.142;17.052;2022-12-24T04:13:10;99178.03;;;6.73;100.00
74310;BME280;62722;51.142;17.052;2022-12-24T04:15:37;99185.94;;;6.86;100.00
74310;BME280;62722;51.142;17.052;2022-12-24T04:18:04;99182.56;;;6.97;100.00
74310;BME280;62722;51.142;17.052;2022-12-24T04:20:31;99184.16;;;6.99;100.00
74310;BME280;62722;51.142;17.052;2022-12-24T04:22:58;99175.97;;;7.04;100.00
74310;BME280;62722;51.142;17.052;2022-12-24T04:25:27;99179.75;;;7.12;100.00
74310;BME280;62722;51.142;17.052;2022-12-24T04:27:54;99177.63;;;7.17;100.00
74310;BME280;62722;51.142;17.052;2022-12-24T04:30:21;99184.25;;;7.23;100.00
74310;BME280;62722;51.142;17.052;2022-12-24T04:32:48;99186.66;;;7.26;100.00
74310;BME280;62722;51.142;17.052;2022-12-24T04:35:16;99185.53;;;7.30;100.00
74310;BME280;62722;51.142;17.052;2022-12-24T04:37:43;99182.69;;;7.33;100.00
74310;BME280;62722;51.142;17.052;2022-12-24T04:40:10;99181.53;;;7.37;100.00
74310;BME280;62722;51.142;17.052;2022-12-24T04:42:39;99178.69;;;7.40;100.00
74310;BME280;62722;51.142;17.052;2022-12-24T04:45:07;99186.25;;;7.45;100.00
74310;BME280;62722;51.142;17.052;2022-12-24T04:47:34;99186.88;;;7.48;100.00
74310;BME280;62722;51.142;17.052;2022-12-24T04:50:02;99186.78;;;7.50;100.00
74310;BME280;62722;51.142;17.052;2022-12-24T04:52:29;99196.53;;;7.48;100.00
74310;BME280;62722;51.142;17.052;2022-12-24T04:54:57;99186.66;;;7.51;100.00
74310;BME280;62722;51.142;17.052;2022-12-24T04:57:24;99185.94;;;7.49;100.00
74310;BME280;62722;51.142;17.052;2022-12-24T04:59:52;99192.66;;;7.53;100.00
74310;BME280;62722;51.142;17.052;2022-12-24T05:02:19;99193.13;;;7.58;100.00
74310;BME280;62722;51.142;17.052;2022-12-24T05:04:47;99198.38;;;7.58;100.00
74310;BME280;62722;51.142;17.052;2022-12-24T05:07:14;99198.63;;;7.55;100.00
74310;BME280;62722;51.142;17.052;2022-12-24T05:09:41;99198.63;;;7.55;100.00
74310;BME280;62722;51.142;17.052;2022-12-24T05:12:08;99206.50;;;7.55;100.00
74310;BME280;62722;51.142;17.052;2022-12-24T05:14:36;99211.88;;;7.54;100.00
74310;BME280;62722;51.142;17.052;2022-12-24T05:17:04;99216.28;;;7.53;100.00
74310;BME280;62722;51.142;17.052;2022-12-24T05:19:32;99217.75;;;7.57;100.00
74310;BME280;62722;51.142;17.052;2022-12-24T05:21:59;99213.94;;;7.61;100.00
74310;BME280;62722;51.142;17.052;2022-12-24T05:24:46;99222.63;;;7.74;100.00
74310;BME280;62722;51.142;17.052;2022-12-24T05:27:30;99219.47;;;7.82;100.00
74310;BME280;62722;51.142;17.052;2022-12-24T05:29:58;99222.72;;;7.86;100.00
74310;BME280;62722;51.142;17.052;2022-12-24T05:32:26;99227.31;;;7.95;100.00
74310;BME280;62722;51.142;17.052;2022-12-24T05:34:54;99235.94;;;7.97;100.00
74310;BME280;62722;51.142;17.052;2022-12-24T05:37:21;99235.50;;;8.03;100.00
74310;BME280;62722;51.142;17.052;2022-12-24T05:39:49;99237.91;;;8.06;100.00
74310;BME280;62722;51.142;17.052;2022-12-24T05:42:16;99238.97;;;8.03;100.00
74310;BME280;62722;51.142;17.052;2022-12-24T05:44:43;99246.63;;;8.06;100.00
74310;BME280;62722;51.142;17.052;2022-12-24T05:47:10;99247.47;;;8.07;100.00
74310;BME280;62722;51.142;17.052;2022-12-24T05:49:38;99256.09;;;8.09;100.00
74310;BME280;62722;51.142;17.052;2022-12-24T05:52:05;99265.00;;;8.06;100.00
74310;BME280;62722;51.142;17.052;2022-12-24T05:54:33;99265.00;;;8.06;100.00
74310;BME280;62722;51.142;17.052;2022-12-24T05:57:00;99267.66;;;8.06;100.00
74310;BME280;62722;51.142;17.052;2022-12-24T05:59:27;99269.44;;;8.06;100.00
74310;BME280;62722;51.142;17.052;2022-12-24T06:01:54;99269.56;;;8.04;100.00
74310;BME280;62722;51.142;17.052;2022-12-24T06:04:22;99281.22;;;8.00;100.00
74310;BME280;62722;51.142;17.052;2022-12-24T06:06:50;99282.38;;;7.96;100.00
74310;BME280;62722;51.142;17.052;2022-12-24T06:09:17;99286.69;;;7.97;100.00
74310;BME280;62722;51.142;17.052;2022-12-24T06:11:44;99290.06;;;7.99;100.00
74310;BME280;62722;51.142;17.052;2022-12-24T06:14:12;99285.53;;;8.01;100.00
74310;BME280;62722;51.142;17.052;2022-12-24T06:16:39;99291.41;;;8.05;100.00
74310;BME280;62722;51.142;17.052;2022-12-24T06:19:06;99284.47;;;8.04;100.00
74310;BME280;62722;51.142;17.052;2022-12-24T06:21:33;99295.09;;;8.02;100.00
74310;BME280;62722;51.142;17.052;2022-12-24T06:24:02;99310.13;;;8.00;100.00
74310;BME280;62722;51.142;17.052;2022-12-24T06:26:30;99307.41;;;8.02;100.00
74310;BME280;62722;51.142;17.052;2022-12-24T06:28:57;99314.22;;;8.04;100.00
74310;BME280;62722;51.142;17.052;2022-12-24T06:31:24;99318.72;;;8.02;100.00
74310;BME280;62722;51.142;17.052;2022-12-24T06:33:52;99313.38;;;8.04;100.00
74310;BME280;62722;51.142;17.052;2022-12-24T06:36:20;99324.63;;;8.06;100.00
74310;BME280;62722;51.142;17.052;2022-12-24T06:38:49;99321.66;;;8.10;100.00
74310;BME280;62722;51.142;17.052;2022-12-24T06:41:18;99319.16;;;8.09;100.00
74310;BME280;62722;51.142;17.052;2022-12-24T06:43:48;99329.56;;;8.10;100.00
74310;BME280;62722;51.142;17.052;2022-12-24T06:46:16;99332.94;;;8.12;100.00
74310;BME280;62722;51.142;17.052;2022-12-24T06:48:44;99338.28;;;8.11;100.00
74310;BME280;62722;51.142;17.052;2022-12-24T06:51:12;99343.31;;;8.14;100.00
74310;BME280;62722;51.142;17.052;2022-12-24T06:53:39;99352.19;;;8.13;100.00
74310;BME280;62722;51.142;17.052;2022-12-24T06:56:08;99346.78;;;8.14;100.00
74310;BME280;62722;51.142;17.052;2022-12-24T06:58:37;99350.25;;;8.15;100.00
74310;BME280;62722;51.142;17.052;2022-12-24T07:01:07;99350.25;;;8.15;100.00
74310;BME280;62722;51.142;17.052;2022-12-24T07:03:35;99355.75;;;8.12;100.00
74310;BME280;62722;51.142;17.052;2022-12-24T07:06:02;99368.75;;;8.13;100.00
74310;BME280;62722;51.142;17.052;2022-12-24T07:08:30;99373.19;;;8.13;100.00
74310;BME280;62722;51.142;17.052;2022-12-24T07:10:58;99377.59;;;8.12;100.00
74310;BME280;62722;51.142;17.052;2022-12-24T07:13:26;99376.53;;;8.15;100.00
74310;BME280;62722;51.142;17.052;2022-12-24T07:15:58;99384.53;;;8.13;100.00
74310;BME280;62722;51.142;17.052;2022-12-24T07:18:26;99390.63;;;8.14;100.00
74310;BME280;62722;51.142;17.052;2022-12-24T07:20:54;99401.34;;;8.11;100.00
74310;BME280;62722;51.142;17.052;2022-12-24T07:23:21;99406.63;;;8.11;100.00
74310;BME280;62722;51.142;17.052;2022-12-24T07:25:48;99418.91;;;8.10;100.00
74310;BME280;62722;51.142;17.052;2022-12-24T07:28:15;99420.50;;;8.13;100.00
74310;BME280;62722;51.142;17.052;2022-12-24T07:30:43;99434.38;;;8.15;100.00
74310;BME280;62722;51.142;17.052;2022-12-24T07:33:11;99433.44;;;8.16;100.00
74310;BME280;62722;51.142;17.052;2022-12-24T07:35:38;99441.41;;;8.14;100.00
74310;BME280;62722;51.142;17.052;2022-12-24T07:38:06;99437.84;;;8.15;100.00
74310;BME280;62722;51.142;17.052;2022-12-24T07:40:33;99452.47;;;8.19;100.00
74310;BME280;62722;51.142;17.052;2022-12-24T07:43:00;99448.84;;;8.20;100.00
74310;BME280;62722;51.142;17.052;2022-12-24T07:45:27;99462.00;;;8.20;100.00
74310;BME280;62722;51.142;17.052;2022-12-24T07:47:54;99463.81;;;8.20;100.00
74310;BME280;62722;51.142;17.052;2022-12-24T07:50:23;99468.53;;;8.15;100.00
74310;BME280;62722;51.142;17.052;2022-12-24T07:52:50;99465.06;;;8.14;100.00
74310;BME280;62722;51.142;17.052;2022-12-24T07:55:17;99480.75;;;8.16;100.00
74310;BME280;62722;51.142;17.052;2022-12-24T07:57:45;99486.09;;;8.14;100.00
74310;BME280;62722;51.142;17.052;2022-12-24T08:00:12;99485.25;;;8.14;100.00
74310;BME280;62722;51.142;17.052;2022-12-24T08:02:40;99493.97;;;8.14;100.00
74310;BME280;62722;51.142;17.052;2022-12-24T08:05:08;99498.38;;;8.14;100.00
74310;BME280;62722;51.142;17.052;2022-12-24T08:07:36;99504.41;;;8.16;100.00
74310;BME280;62722;51.142;17.052;2022-12-24T08:10:04;99505.25;;;8.16;100.00
74310;BME280;62722;51.142;17.052;2022-12-24T08:12:32;99516.56;;;8.17;100.00
74310;BME280;62722;51.142;17.052;2022-12-24T08:14:59;99523.63;;;8.16;100.00
74310;BME280;62722;51.142;17.052;2022-12-24T08:17:26;99523.09;;;8.11;100.00
74310;BME280;62722;51.142;17.052;2022-12-24T08:19:53;99526.56;;;8.12;100.00
74310;BME280;62722;51.142;17.052;2022-12-24T08:22:20;99529.50;;;8.07;100.00
74310;BME280;62722;51.142;17.052;2022-12-24T08:24:49;99533.19;;;8.05;100.00
74310;BME280;62722;51.142;17.052;2022-12-24T08:27:16;99533.41;;;8.02;100.00
74310;BME280;62722;51.142;17.052;2022-12-24T08:29:43;99534.53;;;7.98;100.00
74310;BME280;62722;51.142;17.052;2022-12-24T08:32:10;99544.94;;;7.99;100.00
74310;BME280;62722;51.142;17.052;2022-12-24T08:34:37;99550.31;;;7.98;100.00
74310;BME280;62722;51.142;17.052;2022-12-24T08:37:05;99562.59;;;7.97;100.00
74310;BME280;62722;51.142;17.052;2022-12-24T08:39:32;99567.84;;;7.97;100.00
74310;BME280;62722;51.142;17.052;2022-12-24T08:42:01;99560.91;;;7.96;100.00
74310;BME280;62722;51.142;17.052;2022-12-24T08:44:28;99582.66;;;7.98;100.00
74310;BME280;62722;51.142;17.052;2022-12-24T08:46:55;99587.19;;;7.96;100.00
74310;BME280;62722;51.142;17.052;2022-12-24T08:49:22;99591.59;;;7.96;100.00
74310;BME280;62722;51.142;17.052;2022-12-24T08:51:50;99594.22;;;7.96;100.00
74310;BME280;62722;51.142;17.052;2022-12-24T08:54:17;99592.53;;;7.95;100.00
74310;BME280;62722;51.142;17.052;2022-12-24T08:56:44;99601.16;;;7.97;100.00
74310;BME280;62722;51.142;17.052;2022-12-24T08:59:13;99606.63;;;7.94;100.00
74310;BME280;62722;51.142;17.052;2022-12-24T09:01:40;99606.91;;;7.89;100.00
74310;BME280;62722;51.142;17.052;2022-12-24T09:04:07;99605.00;;;7.91;100.00
74310;BME280;62722;51.142;17.052;2022-12-24T09:06:35;99619.00;;;7.92;100.00
74310;BME280;62722;51.142;17.052;2022-12-24T09:09:03;99625.22;;;7.91;100.00
74310;BME280;62722;51.142;17.052;2022-12-24T09:11:32;99623.41;;;7.91;100.00
74310;BME280;62722;51.142;17.052;2022-12-24T09:14:00;99625.22;;;7.91;100.00
74310;BME280;62722;51.142;17.052;2022-12-24T09:16:29;99624.38;;;7.90;100.00
74310;BME280;62722;51.142;17.052;2022-12-24T09:18:56;99623.53;;;7.90;100.00
74310;BME280;62722;51.142;17.052;2022-12-24T09:21:24;99620.97;;;7.88;100.00
74310;BME280;62722;51.142;17.052;2022-12-24T09:23:51;99634.25;;;7.87;100.00
74310;BME280;62722;51.142;17.052;2022-12-24T09:26:21;99640.22;;;7.89;100.00
74310;BME280;62722;51.142;17.052;2022-12-24T09:28:48;99641.91;;;7.90;100.00
74310;BME280;62722;51.142;17.052;2022-12-24T09:31:16;99648.94;;;7.89;100.00
74310;BME280;62722;51.142;17.052;2022-12-24T09:33:47;99652.44;;;7.90;100.00
74310;BME280;62722;51.142;17.052;2022-12-24T09:36:15;99655.91;;;7.90;100.00
74310;BME280;62722;51.142;17.052;2022-12-24T09:38:42;99660.19;;;7.91;100.00
74310;BME280;62722;51.142;17.052;2022-12-24T09:41:11;99670.63;;;7.93;100.00
74310;BME280;62722;51.142;17.052;2022-12-24T09:43:43;99665.16;;;7.96;100.00
74310;BME280;62722;51.142;17.052;2022-12-24T09:46:16;99673.03;;;7.96;100.00
74310;BME280;62722;51.142;17.052;2022-12-24T09:48:50;99683.56;;;7.96;100.00
74310;BME280;62722;51.142;17.052;2022-12-24T09:51:25;99694.06;;;7.96;100.00
74310;BME280;62722;51.142;17.052;2022-12-24T09:53:57;99686.47;;;7.91;100.00
74310;BME280;62722;51.142;17.052;2022-12-24T09:56:29;99696.88;;;7.93;100.00
74310;BME280;62722;51.142;17.052;2022-12-24T09:58:58;99704.78;;;7.93;100.00
74310;BME280;62722;51.142;17.052;2022-12-24T10:01:29;99709.28;;;7.91;99.64
74310;BME280;62722;51.142;17.052;2022-12-24T10:04:03;99705.91;;;7.89;100.00
74310;BME280;62722;51.142;17.052;2022-12-24T10:06:35;99716.41;;;7.89;100.00
74310;BME280;62722;51.142;17.052;2022-12-24T10:09:11;99708.81;;;7.84;100.00
74310;BME280;62722;51.142;17.052;2022-12-24T10:11:49;99721.22;;;7.82;100.00
74310;BME280;62722;51.142;17.052;2022-12-24T10:14:32;99722.16;;;7.81;100.00
74310;BME280;62722;51.142;17.052;2022-12-24T10:17:16;99736.13;;;7.81;100.00
74310;BME280;62722;51.142;17.052;2022-12-24T10:19:51;99733.44;;;7.83;100.00
74310;BME280;62722;51.142;17.052;2022-12-24T10:22:29;99729.19;;;7.80;100.00
74310;BME280;62722;51.142;17.052;2022-12-24T10:25:03;99732.78;;;7.79;100.00
74310;BME280;62722;51.142;17.052;2022-12-24T10:27:37;99735.09;;;7.84;100.00
74310;BME280;62722;51.142;17.052;2022-12-24T10:30:12;99736.78;;;7.85;100.00
74310;BME280;62722;51.142;17.052;2022-12-24T10:32:40;99743.09;;;7.82;100.00
74310;BME280;62722;51.142;17.052;2022-12-24T10:35:18;99755.19;;;7.85;100.00
74310;BME280;62722;51.142;17.052;2022-12-24T10:37:48;99764.09;;;7.82;100.00
74310;BME280;62722;51.142;17.052;2022-12-24T10:40:23;99761.47;;;7.82;100.00
74310;BME280;62722;51.142;17.052;2022-12-24T10:42:51;99760.72;;;7.80;100.00
74310;BME280;62722;51.142;17.052;2022-12-24T10:45:20;99761.66;;;7.79;100.00
74310;BME280;62722;51.142;17.052;2022-12-24T10:47:53;99781.91;;;7.77;100.00
74310;BME280;62722;51.142;17.052;2022-12-24T10:50:28;99781.19;;;7.75;100.00
74310;BME280;62722;51.142;17.052;2022-12-24T10:53:03;99776.84;;;7.74;100.00
74310;BME280;62722;51.142;17.052;2022-12-24T10:55:32;99780.41;;;7.73;100.00
74310;BME280;62722;51.142;17.052;2022-12-24T10:58:01;99792.81;;;7.71;100.00
74310;BME280;62722;51.142;17.052;2022-12-24T11:00:30;99802.47;;;7.71;100.00
74310;BME280;62722;51.142;17.052;2022-12-24T11:03:19;99794.66;;;7.69;100.00
74310;BME280;62722;51.142;17.052;2022-12-24T11:06:04;99795.63;;;7.68;100.00
74310;BME280;62722;51.142;17.052;2022-12-24T11:08:32;99795.53;;;7.70;100.00
74310;BME280;62722;51.142;17.052;2022-12-24T11:11:01;99789.41;;;7.69;100.00
74310;BME280;62722;51.142;17.052;2022-12-24T11:13:32;99807.06;;;7.67;100.00
74310;BME280;62722;51.142;17.052;2022-12-24T11:16:02;99806.97;;;7.69;100.00
74310;BME280;62722;51.142;17.052;2022-12-24T11:18:31;99814.03;;;7.68;100.00
74310;BME280;62722;51.142;17.052;2022-12-24T11:21:02;99810.63;;;7.66;100.00
74310;BME280;62722;51.142;17.052;2022-12-24T11:23:30;99810.63;;;7.66;100.00
74310;BME280;62722;51.142;17.052;2022-12-24T11:25:57;99815.88;;;7.66;100.00
74310;BME280;62722;51.142;17.052;2022-12-24T11:28:26;99805.56;;;7.63;100.00
74310;BME280;62722;51.142;17.052;2022-12-24T11:31:01;99823.03;;;7.64;100.00
74310;BME280;62722;51.142;17.052;2022-12-24T11:33:29;99823.03;;;7.64;100.00
74310;BME280;62722;51.142;17.052;2022-12-24T11:36:02;99815.22;;;7.63;100.00
74310;BME280;62722;51.142;17.052;2022-12-24T11:38:32;99820.94;;;7.69;100.00
74310;BME280;62722;51.142;17.052;2022-12-24T11:41:02;99829.47;;;7.73;100.00
74310;BME280;62722;51.142;17.052;2022-12-24T11:43:41;99824.22;;;7.73;100.00
74310;BME280;62722;51.142;17.052;2022-12-24T11:46:18;99838.00;;;7.76;100.00
74310;BME280;62722;51.142;17.052;2022-12-24T11:48:47;99836.88;;;7.80;100.00
74310;BME280;62722;51.142;17.052;2022-12-24T11:51:22;99838.50;;;7.83;100.00
74310;BME280;62722;51.142;17.052;2022-12-24T11:53:56;99844.56;;;7.83;100.00
74310;BME280;62722;51.142;17.052;2022-12-24T11:56:32;99846.28;;;7.84;100.00
74310;BME280;62722;51.142;17.052;2022-12-24T11:59:08;99858.50;;;7.86;100.00
74310;BME280;62722;51.142;17.052;2022-12-24T12:01:42;99857.56;;;7.87;100.00
74310;BME280;62722;51.142;17.052;2022-12-24T12:04:15;99855.75;;;7.87;100.00
74310;BME280;62722;51.142;17.052;2022-12-24T12:06:46;99855.66;;;7.89;100.00
74310;BME280;62722;51.142;17.052;2022-12-24T12:09:18;99856.44;;;7.91;100.00
74310;BME280;62722;51.142;17.052;2022-12-24T12:11:49;99858.09;;;7.92;100.00
74310;BME280;62722;51.142;17.052;2022-12-24T12:14:20;99866.56;;;7.97;100.00
74310;BME280;62722;51.142;17.052;2022-12-24T12:16:57;99869.00;;;8.00;100.00
74310;BME280;62722;51.142;17.052;2022-12-24T12:19:35;99874.81;;;8.05;100.00
74310;BME280;62722;51.142;17.052;2022-12-24T12:22:12;99868.53;;;8.07;100.00
74310;BME280;62722;51.142;17.052;2022-12-24T12:24:46;99884.03;;;8.12;100.00
74310;BME280;62722;51.142;17.052;2022-12-24T12:27:19;99884.56;;;8.17;100.00
74310;BME280;62722;51.142;17.052;2022-12-24T12:29:55;99893.22;;;8.19;100.00
74310;BME280;62722;51.142;17.052;2022-12-24T12:32:27;99899.97;;;8.23;100.00
74310;BME280;62722;51.142;17.052;2022-12-24T12:35:03;99899.22;;;8.21;100.00
74310;BME280;62722;51.142;17.052;2022-12-24T12:37:37;99899.06;;;8.24;100.00
74310;BME280;62722;51.142;17.052;2022-12-24T12:40:12;99910.22;;;8.27;99.91
74310;BME280;62722;51.142;17.052;2022-12-24T12:42:44;99906.47;;;8.31;99.77
74310;BME280;62722;51.142;17.052;2022-12-24T12:45:32;99916.50;;;8.39;99.34
74310;BME280;62722;51.142;17.052;2022-12-24T12:48:30;99910.97;;;8.44;98.57
74310;BME280;62722;51.142;17.052;2022-12-24T12:51:04;99913.41;;;8.47;98.42
74310;BME280;62722;51.142;17.052;2022-12-24T12:53:43;99921.22;;;8.48;98.66
74310;BME280;62722;51.142;17.052;2022-12-24T12:56:23;99919.31;;;8.50;97.77
74310;BME280;62722;51.142;17.052;2022-12-24T12:58:54;99925.16;;;8.55;97.61
74310;BME280;62722;51.142;17.052;2022-12-24T13:01:29;99925.72;;;8.60;96.95
74310;BME280;62722;51.142;17.052;2022-12-24T13:04:44;99926.44;;;8.62;96.86
74310;BME280;62722;51.142;17.052;2022-12-24T13:07:50;99936.31;;;8.59;96.59